.
WxDataArchive / Data Records for 2014-04-22
2014-04-21 April 2014 2014-04-23

Data Records for Tuesday, 22 April 2014

Time	Temp	Chill	HIndex	Humid	Dewpt	 Wind 	HiWind	WindDir	Rain 	Barom
-----	----	-----	------	-----	-----	------	------	-------	-----	-----
00:00	63.5	63.5	63.5	63	50.7	1	3	270	0.00	29.772 
00:05	63.4	63.4	63.4	64	51.0	0	1	270	0.00	29.772 
00:10	63.2	63.2	63.2	64	50.8	1	3	270	0.00	29.772 
00:15	63.1	63.1	63.1	65	51.1	1	3	270	0.00	29.770 
00:20	63.1	63.1	63.1	65	51.1	1	3	270	0.00	29.770 
00:25	62.9	62.9	62.9	66	51.4	1	4	248	0.00	29.770 
00:30	62.7	62.7	62.7	67	51.6	1	4	248	0.00	29.763 
00:35	62.6	62.6	62.6	68	51.9	0	2	248	0.00	29.763 
00:40	62.4	62.4	62.4	69	52.1	0	2	248	0.00	29.763 
00:45	62.1	62.1	62.1	71	52.6	1	5	248	0.00	29.756 
00:50	62.0	62.0	62.0	72	52.9	0	2	248	0.00	29.756 
00:55	61.8	61.8	61.8	72	52.7	1	3	248	0.00	29.756 
01:00	61.6	61.6	61.6	73	52.9	0	2	248	0.00	29.753 
01:05	61.5	61.5	61.5	73	52.8	0	2	248	0.00	29.753 
01:10	61.5	61.5	61.5	73	52.8	1	3	248	0.00	29.753 
01:15	61.3	61.3	61.3	73	52.6	1	4	248	0.00	29.745 
01:20	61.3	61.3	61.3	73	52.6	1	3	248	0.00	29.745 
01:25	61.3	61.3	61.3	73	52.6	0	2	248	0.00	29.745 
01:30	61.3	61.3	61.3	73	52.6	0	3	248	0.00	29.740 
01:35	61.2	61.2	61.2	74	52.8	0	1	248	0.00	29.740 
01:40	61.2	61.2	61.2	74	52.8	0	1	248	0.00	29.740 
01:45	61.2	61.2	61.2	75	53.2	0	1	248	0.00	29.736 
01:50	61.0	61.0	61.0	76	53.4	0	2	248	0.00	29.736 
01:55	60.9	60.9	60.9	76	53.3	0	2	248	0.00	29.736 
02:00	60.7	60.7	60.7	77	53.4	0	2	248	0.00	29.733 
02:05	60.5	60.5	60.5	77	53.2	0	1	248	0.00	29.733 
02:10	60.4	60.4	60.4	78	53.5	1	3	248	0.00	29.733 
02:15	60.4	60.4	60.4	78	53.5	1	2	248	0.00	29.730 
02:20	60.2	60.2	60.2	79	53.7	1	3	248	0.00	29.730 
02:25	60.1	60.1	60.1	80	53.9	1	3	248	0.00	29.730 
02:30	59.8	59.8	59.8	81	54.0	1	3	248	0.00	29.723 
02:35	59.6	59.6	59.6	81	53.8	0	2	248	0.00	29.723 
02:40	59.5	59.5	59.5	82	54.0	1	2	248	0.00	29.723 
02:45	59.5	59.5	59.5	82	54.0	1	3	248	0.00	29.722 
02:50	59.5	59.5	59.5	82	54.0	1	4	248	0.00	29.722 
02:55	59.5	59.5	59.5	83	54.3	2	5	248	0.00	29.722 
03:00	59.3	59.3	59.3	83	54.1	2	6	248	0.00	29.717 
03:05	59.3	59.3	59.3	84	54.5	1	4	248	0.00	29.717 
03:10	59.2	59.2	59.2	84	54.4	2	5	248	0.00	29.717 
03:15	59.2	59.2	59.2	84	54.4	1	3	248	0.00	29.711 
03:20	59.0	59.0	59.0	85	54.5	1	2	248	0.00	29.711 
03:25	58.9	58.9	58.9	85	54.4	1	3	248	0.00	29.711 
03:30	58.9	58.9	58.9	86	54.7	1	3	248	0.00	29.709 
03:35	58.7	58.7	58.7	86	54.5	1	4	248	0.00	29.709 
03:40	58.7	58.7	58.7	87	54.8	1	4	248	0.00	29.709 
03:45	58.6	58.6	58.6	87	54.7	0	1	248	0.00	29.704 
03:50	58.6	58.6	58.6	87	54.7	1	3	248	0.00	29.704 
03:55	58.6	58.6	58.6	87	54.7	0	3	248	0.00	29.704 
04:00	58.6	58.6	58.6	88	55.1	1	4	248	0.00	29.698 
04:05	58.4	58.4	58.4	88	54.9	0	1	248	0.00	29.698 
04:10	58.4	58.4	58.4	88	54.9	1	2	248	0.00	29.698 
04:15	58.4	58.4	58.4	88	54.9	1	3	248	0.00	29.697 
04:20	58.4	58.4	58.4	89	55.2	0	2	248	0.00	29.697 
04:25	58.3	58.3	58.3	89	55.1	1	3	248	0.00	29.697 
04:30	58.3	58.3	58.3	89	55.1	1	3	248	0.00	29.695 
04:35	58.3	58.3	58.3	89	55.1	1	3	248	0.00	29.695 
04:40	58.4	58.4	58.4	89	55.2	1	3	248	0.00	29.695 
04:45	58.4	58.4	58.4	90	55.5	1	3	248	0.00	29.694 
04:50	58.4	58.4	58.4	90	55.5	0	2	248	0.00	29.694 
04:55	58.4	58.4	58.4	90	55.5	0	2	248	0.00	29.694 
05:00	58.4	58.4	58.4	90	55.5	1	2	248	0.00	29.698 
05:05	58.4	58.4	58.4	90	55.5	1	3	248	0.00	29.698 
05:10	58.4	58.4	58.4	90	55.5	1	2	248	0.00	29.698 
05:15	58.4	58.4	58.4	90	55.5	1	2	248	0.00	29.696 
05:20	58.6	58.6	58.6	90	55.7	1	3	248	0.00	29.696 
05:25	58.6	58.6	58.6	90	55.7	0	2	248	0.00	29.696 
05:30	58.6	58.6	58.6	90	55.7	1	2	248	0.00	29.693 
05:35	58.6	58.6	58.6	90	55.7	1	2	248	0.00	29.693 
05:40	58.7	58.7	58.7	90	55.8	1	3	248	0.00	29.693 
05:45	58.7	58.7	58.7	90	55.8	0	3	248	0.00	29.685 
05:50	58.6	58.6	58.6	90	55.7	0	2	248	0.00	29.685 
05:55	58.4	58.4	58.4	90	55.5	0	2	248	0.00	29.685 
06:00	58.3	58.3	58.3	90	55.4	0	2	248	0.00	29.691 
06:05	58.1	58.1	58.1	90	55.2	0	1	248	0.00	29.691 
06:10	58.0	58.0	58.0	90	55.1	1	2	248	0.00	29.691 
06:15	57.8	57.8	57.8	90	54.9	1	2	248	0.00	29.696 
06:20	57.8	57.8	57.8	90	54.9	0	2	248	0.00	29.696 
06:25	57.8	57.8	57.8	90	54.9	1	2	248	0.00	29.696 
06:30	57.8	57.8	57.8	90	54.9	1	4	248	0.00	29.697 
06:35	57.8	57.8	57.8	89	54.6	2	3	248	0.00	29.697 
06:40	57.8	57.8	57.8	89	54.6	1	4	248	0.00	29.697 
06:45	57.6	57.6	57.6	88	54.1	2	5	248	0.00	29.700 
06:50	57.6	57.6	57.6	88	54.1	2	4	248	0.00	29.700 
06:55	57.6	57.6	57.6	87	53.8	2	5	270	0.00	29.700 
07:00	57.6	57.6	57.6	87	53.8	3	5	270	0.00	29.711 
07:05	56.7	56.7	56.7	84	51.9	4	10	270	0.00	29.711 
07:10	55.1	55.1	55.1	84	50.4	4	9	270	0.00	29.711 
07:15	53.8	53.8	53.8	85	49.4	3	6	270	0.00	29.734 
07:20	52.9	52.9	52.9	86	48.8	3	7	270	0.00	29.734 
07:25	51.9	51.9	51.9	87	48.2	3	7	248	0.00	29.734 
07:30	50.8	50.8	50.8	87	47.1	4	9	315	0.00	29.751 
07:35	49.4	48.2	49.4	87	45.7	4	11	270	0.00	29.751 
07:40	48.6	47.3	48.6	88	45.2	4	7	292	0.00	29.751 
07:45	48.3	48.3	48.3	89	45.2	3	8	315	0.00	29.764 
07:50	48.2	48.2	48.2	90	45.4	3	7	292	0.00	29.764 
07:55	48.3	48.3	48.3	90	45.5	3	6	315	0.00	29.764 
08:00	48.3	48.3	48.3	91	45.8	3	9	315	0.00	29.769 
08:05	48.5	48.5	48.5	91	46.0	3	6	270	0.00	29.769 
08:10	48.5	48.5	48.5	91	46.0	2	7	315	0.00	29.769 
08:15	48.5	48.5	48.5	90	45.7	3	7	315	0.00	29.775 
08:20	48.5	48.5	48.5	90	45.7	3	9	270	0.00	29.775 
08:25	48.5	47.1	48.5	90	45.7	4	9	338	0.00	29.775 
08:30	48.6	47.3	48.6	90	45.8	4	11	292	0.00	29.780 
08:35	48.6	47.3	48.6	90	45.8	4	11	338	0.00	29.780 
08:40	48.8	48.8	48.8	90	46.0	3	9	315	0.00	29.780 
08:45	48.8	48.8	48.8	89	45.7	3	6	315	0.00	29.780 
08:50	48.9	47.6	48.9	89	45.8	4	10	315	0.00	29.780 
08:55	49.1	49.1	49.1	88	45.7	3	10	338	0.00	29.780 
09:00	49.2	49.2	49.2	88	45.8	2	7	315	0.00	29.784 
09:05	49.4	48.2	49.4	86	45.4	4	9	292	0.00	29.784 
09:10	49.5	48.3	49.5	85	45.2	4	9	270	0.00	29.784 
09:15	49.6	49.6	49.6	84	45.0	3	6	292	0.00	29.788 
09:20	49.8	49.8	49.8	82	44.5	3	11	292	0.00	29.788 
09:25	50.2	50.2	50.2	80	44.3	3	7	270	0.00	29.788 
09:30	50.1	50.1	50.1	79	43.8	3	9	315	0.00	29.793 
09:35	49.8	49.8	49.8	77	42.9	3	6	292	0.00	29.793 
09:40	49.6	48.4	49.6	76	42.3	4	10	338	0.00	29.793 
09:45	49.8	49.8	49.8	77	42.9	2	7	292	0.00	29.797 
09:50	50.2	50.2	50.2	74	42.2	3	7	338	0.00	29.797 
09:55	50.5	50.5	50.5	72	41.8	3	7	338	0.00	29.797 
10:00	50.7	50.7	50.7	70	41.3	3	9	338	0.00	29.797 
10:05	50.8	50.8	50.8	70	41.4	2	6	338	0.00	29.797 
10:10	51.0	51.0	51.0	68	40.8	4	9	338	0.00	29.797 
10:15	50.7	50.7	50.7	66	39.8	4	10	292	0.00	29.804 
10:20	50.8	50.8	50.8	66	39.9	3	10	315	0.00	29.804 
10:25	51.0	51.0	51.0	66	40.0	3	7	292	0.00	29.804 
10:30	51.0	51.0	51.0	65	39.7	4	7	315	0.00	29.808 
10:35	51.1	51.1	51.1	63	38.9	4	8	315	0.00	29.808 
10:40	51.0	51.0	51.0	62	38.4	5	10	315	0.00	29.808 
10:45	51.1	51.1	51.1	62	38.5	5	11	292	0.00	29.819 
10:50	51.1	51.1	51.1	62	38.5	4	10	315	0.00	29.819 
10:55	51.1	51.1	51.1	60	37.7	5	12	338	0.00	29.819 
11:00	51.3	51.3	51.3	61	38.3	3	9	270	0.00	29.822 
11:05	51.3	51.3	51.3	59	37.5	4	10	315	0.00	29.822 
11:10	51.3	51.3	51.3	59	37.5	4	12	338	0.00	29.822 
11:15	51.3	51.3	51.3	59	37.5	4	7	270	0.00	29.829 
11:20	51.4	51.4	51.4	56	36.2	4	9	292	0.00	29.829 
11:25	51.3	51.3	51.3	58	37.0	3	8	338	0.00	29.829 
11:30	51.6	51.6	51.6	57	36.9	3	11	338	0.00	29.832 
11:35	51.7	51.7	51.7	56	36.5	4	7	315	0.00	29.832 
11:40	51.7	51.7	51.7	54	35.6	4	7	338	0.00	29.832 
11:45	51.7	51.7	51.7	55	36.1	4	10	315	0.00	29.834 
11:50	52.0	52.0	52.0	53	35.4	3	11	338	0.00	29.834 
11:55	52.3	52.3	52.3	55	36.6	3	7	292	0.00	29.834 
12:00	52.5	52.5	52.5	53	35.9	4	7	270	0.00	29.833 
12:05	52.3	52.3	52.3	53	35.7	3	9	292	0.00	29.833 
12:10	52.5	52.5	52.5	50	34.4	4	10	292	0.00	29.833 
12:15	52.8	52.8	52.8	52	35.7	3	6	315	0.00	29.836 
12:20	53.3	53.3	53.3	50	35.1	4	9	338	0.00	29.836 
12:25	53.8	53.8	53.8	49	35.1	4	11	270	0.00	29.836 
12:30	53.8	53.8	53.8	51	36.1	3	10	315	0.00	29.836 
12:35	53.6	53.6	53.6	47	33.9	4	10	270	0.00	29.836 
12:40	53.3	53.3	53.3	47	33.6	4	10	315	0.00	29.836 
12:45	53.6	53.6	53.6	49	34.9	4	11	338	0.00	29.836 
12:50	53.9	53.9	53.9	48	34.7	4	7	315	0.00	29.836 
12:55	53.9	53.9	53.9	48	34.7	4	10	270	0.00	29.836 
13:00	54.1	54.1	54.1	46	33.8	3	9	270	0.00	29.836 
13:05	53.9	53.9	53.9	47	34.1	4	9	248	0.00	29.836 
13:10	54.1	54.1	54.1	48	34.8	4	9	270	0.00	29.836 
13:15	54.1	54.1	54.1	47	34.3	4	7	270	0.00	29.838 
13:20	54.5	54.5	54.5	47	34.7	3	6	338	0.00	29.838 
13:25	54.1	54.1	54.1	47	34.3	4	10	292	0.00	29.838 
13:30	54.1	54.1	54.1	47	34.3	4	10	292	0.00	29.835 
13:35	54.4	54.4	54.4	47	34.6	3	6	270	0.00	29.835 
13:40	54.5	54.5	54.5	44	33.0	4	8	270	0.00	29.835 
13:45	54.5	54.5	54.5	44	33.0	4	10	292	0.00	29.823 
13:50	54.7	54.7	54.7	45	33.8	3	10	315	0.00	29.823 
13:55	54.8	54.8	54.8	46	34.4	4	6	270	0.00	29.823 
14:00	55.1	55.1	55.1	46	34.7	4	11	292	0.00	29.831 
14:05	55.1	55.1	55.1	43	33.0	4	11	315	0.00	29.831 
14:10	54.7	54.7	54.7	45	33.8	5	10	270	0.00	29.831 
14:15	54.7	54.7	54.7	46	34.3	4	7	270	0.00	29.835 
14:20	54.5	54.5	54.5	43	32.5	4	11	270	0.00	29.835 
14:25	55.0	55.0	55.0	45	34.1	3	11	270	0.00	29.835 
14:30	55.3	55.3	55.3	46	34.9	4	10	270	0.00	29.843 
14:35	55.3	55.3	55.3	44	33.8	4	12	292	0.00	29.843 
14:40	55.1	55.1	55.1	43	33.0	4	11	338	0.00	29.843 
14:45	55.1	55.1	55.1	47	35.2	4	9	270	0.00	29.839 
14:50	54.8	54.8	54.8	43	32.7	4	8	270	0.00	29.839 
14:55	54.8	54.8	54.8	43	32.7	4	10	315	0.00	29.839 
15:00	54.7	54.7	54.7	45	33.8	4	7	270	0.00	29.838 
15:05	54.8	54.8	54.8	43	32.7	3	7	270	0.00	29.838 
15:10	54.8	54.8	54.8	45	33.9	3	6	315	0.00	29.838 
15:15	54.8	54.8	54.8	41	31.6	4	11	315	0.00	29.838 
15:20	54.4	54.4	54.4	42	31.8	5	10	270	0.00	29.838 
15:25	54.1	54.1	54.1	43	32.1	4	12	338	0.00	29.838 
15:30	53.9	53.9	53.9	44	32.5	4	9	292	0.00	29.838 
15:35	54.1	54.1	54.1	43	32.1	4	13	292	0.00	29.838 
15:40	54.5	54.5	54.5	45	33.6	3	7	315	0.00	29.838 
15:45	54.8	54.8	54.8	42	32.2	4	10	292	0.00	29.836 
15:50	55.0	55.0	55.0	41	31.7	4	9	270	0.00	29.836 
15:55	54.5	54.5	54.5	41	31.3	4	7	292	0.00	29.836 
16:00	54.2	54.2	54.2	42	31.6	5	12	292	0.00	29.843 
16:05	53.9	53.9	53.9	43	31.9	5	14	315	0.00	29.843 
16:10	53.6	53.6	53.6	43	31.7	5	11	315	0.00	29.843 
16:15	53.5	53.5	53.5	46	33.2	6	12	315	0.00	29.846 
16:20	53.8	53.8	53.8	46	33.5	4	9	315	0.00	29.846 
16:25	53.9	53.9	53.9	43	31.9	5	15	315	0.00	29.846 
16:30	53.3	53.3	53.3	45	32.5	5	11	292	0.00	29.845 
16:35	53.3	53.3	53.3	46	33.1	4	16	338	0.00	29.845 
16:40	53.8	53.8	53.8	44	32.4	4	11	292	0.00	29.845 
16:45	53.5	53.5	53.5	43	31.6	6	13	292	0.00	29.853 
16:50	53.2	53.2	53.2	44	31.9	5	12	315	0.00	29.853 
16:55	53.2	53.2	53.2	44	31.9	5	11	292	0.00	29.853 
17:00	53.6	53.6	53.6	45	32.8	3	10	315	0.00	29.848 
17:05	53.6	53.6	53.6	44	32.2	5	12	292	0.00	29.848 
17:10	53.3	53.3	53.3	45	32.5	4	10	270	0.00	29.848 
17:15	53.2	53.2	53.2	45	32.4	5	12	292	0.00	29.861 
17:20	52.9	52.9	52.9	44	31.6	6	11	292	0.00	29.861 
17:25	52.8	52.8	52.8	44	31.5	6	15	315	0.00	29.861 
17:30	52.3	52.3	52.3	45	31.6	6	12	338	0.00	29.869 
17:35	52.6	52.6	52.6	46	32.4	4	10	292	0.00	29.869 
17:40	52.5	52.5	52.5	43	30.7	5	12	338	0.00	29.869 
17:45	52.3	52.3	52.3	46	32.1	5	11	270	0.00	29.873 
17:50	52.2	52.2	52.2	44	31.0	6	11	292	0.00	29.873 
17:55	52.2	52.2	52.2	45	31.5	5	10	315	0.00	29.873 
18:00	52.2	52.2	52.2	45	31.5	4	10	292	0.00	29.884 
18:05	51.9	51.9	51.9	43	30.1	5	13	315	0.00	29.884 
18:10	51.6	51.6	51.6	45	31.0	5	13	292	0.00	29.884 
18:15	51.3	51.3	51.3	46	31.2	6	13	292	0.00	29.891 
18:20	51.3	51.3	51.3	46	31.2	4	12	315	0.00	29.891 
18:25	50.8	50.8	50.8	45	30.2	4	12	292	0.00	29.891 
18:30	50.7	50.7	50.7	46	30.7	3	6	292	0.00	29.892 
18:35	50.5	50.5	50.5	46	30.5	5	12	292	0.00	29.892 
18:40	50.4	50.4	50.4	46	30.4	5	12	292	0.00	29.892 
18:45	50.4	50.4	50.4	45	29.9	5	10	315	0.00	29.901 
18:50	50.2	50.2	50.2	44	29.1	5	13	338	0.00	29.901 
18:55	50.1	50.1	50.1	45	29.6	4	9	315	0.00	29.901 
19:00	50.1	50.1	50.1	45	29.6	4	11	315	0.00	29.908 
19:05	49.8	48.0	49.8	45	29.3	5	11	338	0.00	29.908 
19:10	49.8	48.6	49.8	44	28.8	4	11	292	0.00	29.908 
19:15	49.6	49.6	49.6	44	28.6	3	9	292	0.00	29.920 
19:20	49.5	48.3	49.5	44	28.5	4	9	292	0.00	29.920 
19:25	49.4	48.2	49.4	45	29.0	4	12	292	0.00	29.920 
19:30	49.2	47.9	49.2	45	28.8	4	9	292	0.00	29.930 
19:35	49.1	49.1	49.1	46	29.2	2	6	338	0.00	29.930 
19:40	48.9	48.9	48.9	46	29.0	3	9	338	0.00	29.930 
19:45	48.6	47.3	48.6	46	28.8	4	9	315	0.00	29.934 
19:50	48.3	48.3	48.3	46	28.5	3	6	292	0.00	29.934 
19:55	48.0	48.0	48.0	47	28.7	3	11	270	0.00	29.934 
20:00	47.9	47.9	47.9	47	28.7	2	6	292	0.00	29.932 
20:05	47.7	47.7	47.7	48	29.0	2	7	270	0.00	29.932 
20:10	47.4	47.4	47.4	48	28.7	2	6	338	0.00	29.932 
20:15	47.3	47.3	47.3	48	28.6	3	6	338	0.00	29.932 
20:20	47.1	47.1	47.1	48	28.4	3	10	315	0.00	29.932 
20:25	47.0	47.0	47.0	48	28.3	3	6	338	0.00	29.932 
20:30	46.8	46.8	46.8	49	28.7	2	10	338	0.00	29.933 
20:35	46.7	46.7	46.7	49	28.6	2	6	270	0.00	29.933 
20:40	46.5	46.5	46.5	50	28.9	1	4	292	0.00	29.933 
20:45	46.4	46.4	46.4	50	28.8	1	4	292	0.00	29.935 
20:50	46.2	46.2	46.2	50	28.6	1	5	315	0.00	29.935 
20:55	46.2	46.2	46.2	50	28.6	2	10	0	0.00	29.935 
21:00	46.2	46.2	46.2	50	28.6	1	4	292	0.00	29.940 
21:05	46.2	46.2	46.2	50	28.6	2	6	315	0.00	29.940 
21:10	46.1	46.1	46.1	51	29.0	1	3	315	0.00	29.940 
21:15	45.8	45.8	45.8	51	28.7	1	3	315	0.00	29.946 
21:20	45.8	45.8	45.8	51	28.7	1	5	270	0.00	29.946 
21:25	45.7	45.7	45.7	51	28.6	1	4	292	0.00	29.946 
21:30	45.7	45.7	45.7	51	28.6	1	4	292	0.00	29.950 
21:35	45.5	45.5	45.5	52	28.9	1	4	292	0.00	29.950 
21:40	45.4	45.4	45.4	52	28.8	1	3	292	0.00	29.950 
21:45	45.2	45.2	45.2	53	29.1	0	3	292	0.00	29.959 
21:50	45.1	45.1	45.1	53	29.0	0	3	292	0.00	29.959 
21:55	44.9	44.9	44.9	53	28.8	0	3	292	0.00	29.959 
22:00	44.8	44.8	44.8	54	29.2	0	2	292	0.00	29.965 
22:05	44.5	44.5	44.5	54	28.9	0	3	292	0.00	29.965 
22:10	44.3	44.3	44.3	54	28.7	0	1	292	0.00	29.965 
22:15	44.2	44.2	44.2	54	28.6	0	1	292	0.00	29.970 
22:20	44.1	44.1	44.1	55	29.0	0	3	292	0.00	29.970 
22:25	44.1	44.1	44.1	54	28.5	1	4	292	0.00	29.970 
22:30	44.1	44.1	44.1	54	28.5	1	4	338	0.00	29.976 
22:35	43.9	43.9	43.9	54	28.3	1	4	315	0.00	29.976 
22:40	43.9	43.9	43.9	54	28.3	0	3	270	0.00	29.976 
22:45	43.8	43.8	43.8	54	28.3	0	2	270	0.00	29.975 
22:50	43.6	43.6	43.6	54	28.1	0	1	270	0.00	29.975 
22:55	43.3	43.3	43.3	55	28.2	0	2	270	0.00	29.975 
23:00	43.3	43.3	43.3	55	28.2	0	2	292	0.00	29.974 
23:05	43.2	43.2	43.2	55	28.1	0	1	292	0.00	29.974 
23:10	43.1	43.1	43.1	55	28.0	0	1	292	0.00	29.974 
23:15	42.8	42.8	42.8	56	28.2	0	0	---	0.00	29.969 
23:20	42.5	42.5	42.5	56	27.9	0	3	292	0.00	29.969 
23:25	42.3	42.3	42.3	57	28.2	0	0	---	0.00	29.969 
23:30	42.2	42.2	42.2	57	28.1	0	1	292	0.00	29.970 
23:35	42.1	42.1	42.1	57	28.0	0	1	292	0.00	29.970 
23:40	41.9	41.9	41.9	58	28.2	0	1	292	0.00	29.970 
23:45	41.8	41.8	41.8	58	28.1	0	1	292	0.00	29.966 
23:50	41.6	41.6	41.6	59	28.3	0	1	292	0.00	29.966 
23:55	41.6	41.6	41.6	59	28.3	0	2	292	0.00	29.966 

CoCoRaHS
IN-AL-39
A2 Web Hosting
Creative Commons License
GoDaddy
search engine by freefind advanced

loaded 2018-11-15 16:41:41 • last modified 2010-11-18 10:43:29
Privacy PolicyDisclaimer
• wx.awcolley.com is powered by PmWiki v.2002016 •
• all content (unless otherwise noted) © 2018 A W Colley